Station Historical Data
Daily Summary for January 5, 2018 Units:  English    Metric   Both
« Previous Day
Next Day »
Daily Weekly Monthly Yearly Custom
  High: Low: Average:
Temperature: 18.2 °F 10.7 °F 13.7 °F
Dew Point: 3.4 °F -3.2 °F -1.2 °F
Humidity: 62 % 43 % 51 %
Wind Speed: 23.0 mph 0.0 mph 5.9 mph
Wind Gust: 31.0 mph - -
Wind:- - WSW
Pressure: 30.32 in 29.93 in -
Precipitation: 0.00 in    
Historical Graphs
 
 
Tabular Data for January 5, 2018
Time Temperature Dew Point Pressure Wind Wind Speed Wind Gust Humidity Rainfall Rate (Hourly)
00:00 14.4 °F 0.8 °F 29.93 in West 4.0 mph 19.0 mph 54 % 0.00 in
00:05 14.2 °F 1.4 °F 29.93 in WSW 5.0 mph 19.0 mph 56 % 0.00 in
00:08 14.2 °F 1.4 °F 29.93 in West 2.0 mph 16.0 mph 56 % 0.00 in
00:13 14.0 °F 3.4 °F 29.93 in SW 6.0 mph 16.0 mph 62 % 0.00 in
00:15 13.9 °F 1.1 °F 29.93 in WSW 11.0 mph 16.0 mph 56 % 0.00 in
00:16 13.9 °F 1.1 °F 29.93 in SSW 5.0 mph 16.0 mph 56 % 0.00 in
00:21 13.8 °F 1.0 °F 29.93 in WSW 11.0 mph 16.0 mph 56 % 0.00 in
00:24 13.8 °F 1.0 °F 29.93 in WSW 7.0 mph 16.0 mph 56 % 0.00 in
00:28 13.7 °F 1.3 °F 29.94 in WSW 3.0 mph 16.0 mph 57 % 0.00 in
00:33 13.6 °F 1.2 °F 29.94 in West 7.0 mph 19.0 mph 57 % 0.00 in
00:35 13.6 °F 1.2 °F 29.93 in WSW 4.0 mph 19.0 mph 57 % 0.00 in
00:40 13.5 °F 1.1 °F 29.93 in Calm   19.0 mph 57 % 0.00 in
00:44 13.4 °F 1.0 °F 29.93 in WSW 6.0 mph 19.0 mph 57 % 0.00 in
00:47 13.2 °F 1.2 °F 29.93 in West 7.0 mph 19.0 mph 58 % 0.00 in
00:52 13.2 °F 1.2 °F 29.94 in Calm   18.0 mph 58 % 0.00 in
00:55 13.3 °F 1.3 °F 29.93 in WSW 8.0 mph 18.0 mph 58 % 0.00 in
01:00 13.2 °F 1.2 °F 29.93 in WSW 2.0 mph 18.0 mph 58 % 0.00 in
01:01 13.2 °F 1.2 °F 29.93 in WSW 10.0 mph 18.0 mph 58 % 0.00 in
01:06 13.1 °F 1.1 °F 29.93 in WNW 1.0 mph 18.0 mph 58 % 0.00 in
01:08 13.1 °F 1.1 °F 29.94 in West 2.0 mph 15.0 mph 58 % 0.00 in
01:13 13.0 °F 0.6 °F 29.94 in North 2.0 mph 14.0 mph 57 % 0.00 in
01:18 13.0 °F 0.6 °F 29.94 in West 14.0 mph 14.0 mph 57 % 0.00 in
01:19 13.0 °F 0.6 °F 29.94 in WSW 10.0 mph 14.0 mph 57 % 0.00 in
01:24 13.0 °F 0.6 °F 29.94 in SSW 6.0 mph 16.0 mph 57 % 0.00 in
01:25 13.0 °F 0.2 °F 29.94 in Calm   16.0 mph 56 % 0.00 in
01:30 13.0 °F 0.2 °F 29.94 in SSW 14.0 mph 17.0 mph 56 % 0.00 in
01:34 13.1 °F -0.1 °F 29.94 in WSW 4.0 mph 17.0 mph 55 % 0.00 in
01:39 13.1 °F -0.1 °F 29.94 in WSW 15.0 mph 18.0 mph 55 % 0.00 in
01:42 13.1 °F -0.1 °F 29.95 in WNW 3.0 mph 18.0 mph 55 % 0.00 in
01:47 13.0 °F -0.2 °F 29.95 in SW 9.0 mph 22.0 mph 55 % 0.00 in
01:48 13.1 °F -0.1 °F 29.95 in West 6.0 mph 22.0 mph 55 % 0.00 in
01:51 13.0 °F -0.2 °F 29.95 in WSW 16.0 mph 22.0 mph 55 % 0.00 in
01:56 13.0 °F -0.2 °F 29.96 in West 7.0 mph 22.0 mph 55 % 0.00 in
02:01 12.9 °F -0.3 °F 29.96 in WSW 4.0 mph 22.0 mph 55 % 0.00 in
02:04 12.8 °F -0.3 °F 29.96 in WSW 2.0 mph 22.0 mph 55 % 0.00 in
02:09 12.8 °F -0.3 °F 29.97 in West 4.0 mph 16.0 mph 55 % 0.00 in
02:10 12.8 °F -0.3 °F 29.97 in WSW 4.0 mph 14.0 mph 55 % 0.00 in
02:15 12.7 °F -0.4 °F 29.97 in WSW 6.0 mph 15.0 mph 55 % 0.00 in
02:17 12.8 °F -0.3 °F 29.97 in WSW 4.0 mph 15.0 mph 55 % 0.00 in
02:22 12.7 °F -0.4 °F 29.97 in WSW 5.0 mph 15.0 mph 55 % 0.00 in
02:26 12.6 °F -0.5 °F 29.97 in SW 9.0 mph 15.0 mph 55 % 0.00 in
02:31 12.5 °F -0.6 °F 29.97 in WSW 3.0 mph 15.0 mph 55 % 0.00 in
02:35 12.5 °F -0.6 °F 29.97 in West 2.0 mph 11.0 mph 55 % 0.00 in
02:39 12.4 °F -0.7 °F 29.97 in North 4.0 mph 11.0 mph 55 % 0.00 in
02:43 12.3 °F -0.4 °F 29.97 in WSW 2.0 mph 11.0 mph 56 % 0.00 in
02:48 12.4 °F -0.3 °F 29.97 in West 9.0 mph 17.0 mph 56 % 0.00 in
02:53 12.5 °F -0.2 °F 29.98 in WSW 9.0 mph 17.0 mph 56 % 0.00 in
02:56 12.5 °F -0.6 °F 29.98 in West 3.0 mph 17.0 mph 55 % 0.00 in
03:01 12.5 °F -0.6 °F 29.98 in WSW 11.0 mph 17.0 mph 55 % 0.00 in
03:02 12.5 °F -0.6 °F 29.98 in WNW 2.0 mph 17.0 mph 55 % 0.00 in
03:06 12.4 °F -0.3 °F 29.98 in WSW 4.0 mph 17.0 mph 56 % 0.00 in
03:11 12.3 °F -0.4 °F 29.98 in West 3.0 mph 16.0 mph 56 % 0.00 in
03:12 12.2 °F -0.5 °F 29.98 in WSW 6.0 mph 16.0 mph 56 % 0.00 in
03:15 12.2 °F -0.5 °F 29.98 in West 2.0 mph 15.0 mph 56 % 0.00 in
03:18 12.2 °F -0.5 °F 29.98 in WNW 3.0 mph 15.0 mph 56 % 0.00 in
03:23 12.2 °F -0.5 °F 29.98 in WSW 5.0 mph 16.0 mph 56 % 0.00 in
03:24 12.2 °F -0.5 °F 29.99 in SSW 7.0 mph 16.0 mph 56 % 0.00 in
03:29 12.2 °F -0.5 °F 29.99 in WNW 2.0 mph 16.0 mph 56 % 0.00 in
03:30 12.2 °F -0.9 °F 29.99 in West 3.0 mph 16.0 mph 55 % 0.00 in
03:35 12.2 °F -0.9 °F 29.99 in WSW 1.0 mph 16.0 mph 55 % 0.00 in
03:40 12.1 °F -0.6 °F 29.99 in WSW 13.0 mph 16.0 mph 56 % 0.00 in
03:41 12.1 °F -0.6 °F 29.99 in WSW 8.0 mph 16.0 mph 56 % 0.00 in
03:46 12.1 °F -1.0 °F 29.99 in WSW 10.0 mph 17.0 mph 55 % 0.00 in
03:47 12.1 °F -1.0 °F 29.99 in West 12.0 mph 19.0 mph 55 % 0.00 in
03:52 12.1 °F -1.0 °F 29.99 in WSW 2.0 mph 19.0 mph 55 % 0.00 in
03:53 12.1 °F -0.6 °F 29.99 in West 1.0 mph 19.0 mph 56 % 0.00 in
03:54 12.0 °F -0.7 °F 30.00 in West 5.0 mph 19.0 mph 56 % 0.00 in
03:59 11.8 °F -0.9 °F 30.00 in WSW 4.0 mph 19.0 mph 56 % 0.00 in
04:01 11.9 °F -0.8 °F 30.00 in North 2.0 mph 19.0 mph 56 % 0.00 in
04:03 11.9 °F -0.8 °F 30.00 in WNW 2.0 mph 19.0 mph 56 % 0.00 in
04:08 11.9 °F -0.8 °F 30.00 in West 4.0 mph 15.0 mph 56 % 0.00 in
04:09 11.9 °F -0.8 °F 30.00 in West 3.0 mph 15.0 mph 56 % 0.00 in
04:14 11.8 °F -0.9 °F 30.00 in West 7.0 mph 15.0 mph 56 % 0.00 in
04:19 11.8 °F -0.9 °F 30.00 in West 3.0 mph 15.0 mph 56 % 0.00 in
04:22 11.8 °F -0.9 °F 30.00 in West 3.0 mph 15.0 mph 56 % 0.00 in
04:23 11.8 °F -0.9 °F 30.00 in WSW 11.0 mph 15.0 mph 56 % 0.00 in
04:28 11.8 °F -0.9 °F 30.00 in Calm   15.0 mph 56 % 0.00 in
04:31 11.8 °F -0.9 °F 30.00 in WSW 7.0 mph 15.0 mph 56 % 0.00 in
04:32 11.7 °F -1.0 °F 30.00 in West 10.0 mph 15.0 mph 56 % 0.00 in
04:37 11.7 °F -1.0 °F 30.00 in SW 9.0 mph 15.0 mph 56 % 0.00 in
04:38 11.7 °F -1.0 °F 30.00 in WNW 3.0 mph 15.0 mph 56 % 0.00 in
04:43 11.7 °F -1.0 °F 30.00 in West 6.0 mph 17.0 mph 56 % 0.00 in
04:48 11.7 °F -1.0 °F 30.01 in West 6.0 mph 17.0 mph 56 % 0.00 in
04:51 11.6 °F -0.7 °F 30.01 in WSW 10.0 mph 22.0 mph 57 % 0.00 in
04:56 11.6 °F -0.7 °F 30.01 in WSW 7.0 mph 22.0 mph 57 % 0.00 in
04:59 11.5 °F -0.8 °F 30.01 in West 10.0 mph 22.0 mph 57 % 0.00 in
05:02 11.5 °F -0.8 °F 30.02 in SW 7.0 mph 22.0 mph 57 % 0.00 in
05:05 11.5 °F -0.8 °F 30.02 in WSW 6.0 mph 22.0 mph 57 % 0.00 in
05:10 11.4 °F -0.9 °F 30.02 in WSW 9.0 mph 15.0 mph 57 % 0.00 in
05:14 11.4 °F -0.5 °F 30.02 in WSW 3.0 mph 15.0 mph 58 % 0.00 in
05:19 11.3 °F -0.6 °F 30.02 in Calm   13.0 mph 58 % 0.00 in
05:21 11.2 °F -0.7 °F 30.02 in WSW 1.0 mph 13.0 mph 58 % 0.00 in
05:26 11.0 °F -0.5 °F 30.02 in WSW 2.0 mph 12.0 mph 59 % 0.00 in
05:31 11.0 °F -0.5 °F 30.02 in WSW 1.0 mph 13.0 mph 59 % 0.00 in
05:32 11.0 °F -0.5 °F 30.02 in Calm   13.0 mph 59 % 0.00 in
05:33 11.1 °F -0.5 °F 30.02 in SW 7.0 mph 13.0 mph 59 % 0.00 in
05:38 11.1 °F -0.5 °F 30.03 in WSW 2.0 mph 13.0 mph 59 % 0.00 in
05:43 11.1 °F -0.5 °F 30.03 in WSW 3.0 mph 13.0 mph 59 % 0.00 in
05:44 11.1 °F -0.5 °F 30.03 in WSW 5.0 mph 13.0 mph 59 % 0.00 in
05:46 11.1 °F -0.5 °F 30.03 in SW 5.0 mph 13.0 mph 59 % 0.00 in
05:50 11.1 °F -0.8 °F 30.03 in West 9.0 mph 11.0 mph 58 % 0.00 in
05:54 11.2 °F -0.7 °F 30.03 in WSW 5.0 mph 14.0 mph 58 % 0.00 in
05:59 11.2 °F -0.7 °F 30.03 in West 1.0 mph 14.0 mph 58 % 0.00 in
06:04 11.2 °F -0.7 °F 30.04 in WSW 6.0 mph 14.0 mph 58 % 0.00 in
06:05 11.1 °F -0.8 °F 30.04 in North 5.0 mph 14.0 mph 58 % 0.00 in
06:09 11.2 °F -0.7 °F 30.04 in West 5.0 mph 14.0 mph 58 % 0.00 in
06:12 11.2 °F -0.7 °F 30.04 in West 4.0 mph 12.0 mph 58 % 0.00 in
06:17 11.3 °F -1.0 °F 30.04 in WSW 3.0 mph 16.0 mph 57 % 0.00 in
06:21 11.3 °F -1.0 °F 30.04 in WNW 1.0 mph 16.0 mph 57 % 0.00 in
06:24 11.3 °F -1.0 °F 30.04 in ENE 4.0 mph 20.0 mph 57 % 0.00 in
06:30 11.3 °F -1.4 °F 30.04 in SSW 13.0 mph 20.0 mph 56 % 0.00 in
06:31 11.3 °F -1.4 °F 30.04 in West 14.0 mph 20.0 mph 56 % 0.00 in
06:38 11.2 °F -1.5 °F 30.05 in Calm   20.0 mph 56 % 0.00 in
06:43 11.1 °F -1.6 °F 30.05 in WSW 1.0 mph 22.0 mph 56 % 0.00 in
06:44 11.1 °F -1.6 °F 30.05 in WSW 7.0 mph 22.0 mph 56 % 0.00 in
06:49 11.2 °F -1.5 °F 30.05 in NNE 1.0 mph 22.0 mph 56 % 0.00 in
06:51 11.2 °F -1.5 °F 30.05 in WSW 4.0 mph 22.0 mph 56 % 0.00 in
06:56 11.2 °F -1.5 °F 30.05 in WSW 6.0 mph 22.0 mph 56 % 0.00 in
06:59 11.2 °F -1.5 °F 30.05 in WSW 6.0 mph 22.0 mph 56 % 0.00 in
07:04 11.1 °F -1.6 °F 30.06 in WSW 12.0 mph 18.0 mph 56 % 0.00 in
07:09 11.0 °F -1.7 °F 30.06 in North 3.0 mph 18.0 mph 56 % 0.00 in
07:14 11.0 °F -2.0 °F 30.06 in WSW 7.0 mph 18.0 mph 55 % 0.00 in
07:17 11.0 °F -2.0 °F 30.06 in WSW 4.0 mph 18.0 mph 55 % 0.00 in
07:22 11.0 °F -2.4 °F 30.06 in SW 13.0 mph 17.0 mph 54 % 0.00 in
07:25 10.9 °F -2.1 °F 30.07 in WSW 8.0 mph 17.0 mph 55 % 0.00 in
07:30 10.9 °F -2.5 °F 30.07 in WSW 2.0 mph 17.0 mph 54 % 0.00 in
07:32 10.9 °F -2.1 °F 30.07 in West 2.0 mph 17.0 mph 55 % 0.00 in
07:37 10.7 °F -2.3 °F 30.07 in WNW 2.0 mph 16.0 mph 55 % 0.00 in
07:38 10.7 °F -2.3 °F 30.07 in WSW 10.0 mph 16.0 mph 55 % 0.00 in
07:43 10.7 °F -2.3 °F 30.07 in WSW 9.0 mph 16.0 mph 55 % 0.00 in
07:44 10.7 °F -2.3 °F 30.07 in SW 7.0 mph 16.0 mph 55 % 0.00 in
07:49 10.8 °F -2.6 °F 30.07 in WSW 12.0 mph 20.0 mph 54 % 0.00 in
07:52 10.9 °F -2.5 °F 30.08 in West 10.0 mph 20.0 mph 54 % 0.00 in
07:57 11.0 °F -2.4 °F 30.08 in WSW 3.0 mph 20.0 mph 54 % 0.00 in
08:03 10.9 °F -2.1 °F 30.09 in WSW 4.0 mph 20.0 mph 55 % 0.00 in
08:07 10.8 °F -2.2 °F 30.09 in West 7.0 mph 19.0 mph 55 % 0.00 in
08:12 10.8 °F -2.2 °F 30.09 in WSW 8.0 mph 18.0 mph 55 % 0.00 in
08:17 10.9 °F -2.1 °F 30.09 in WSW 6.0 mph 18.0 mph 55 % 0.00 in
08:18 10.9 °F -2.1 °F 30.09 in WSW 7.0 mph 18.0 mph 55 % 0.00 in
08:23 11.0 °F -2.4 °F 30.10 in West 3.0 mph 18.0 mph 54 % 0.00 in
08:28 11.1 °F -2.3 °F 30.10 in WSW 9.0 mph 15.0 mph 54 % 0.00 in
08:31 11.1 °F -2.3 °F 30.10 in WSW 7.0 mph 15.0 mph 54 % 0.00 in
08:36 11.2 °F -2.6 °F 30.10 in West 2.0 mph 21.0 mph 53 % 0.00 in
08:37 11.2 °F -2.6 °F 30.11 in West 3.0 mph 21.0 mph 53 % 0.00 in
08:42 11.3 °F -2.1 °F 30.11 in NNE 3.0 mph 21.0 mph 54 % 0.00 in
08:47 11.4 °F -2.4 °F 30.11 in West 7.0 mph 21.0 mph 53 % 0.00 in
08:52 11.4 °F -2.5 °F 30.11 in West 11.0 mph 24.0 mph 53 % 0.00 in
08:57 11.5 °F -2.3 °F 30.11 in WSW 11.0 mph 24.0 mph 53 % 0.00 in
09:02 11.6 °F -2.3 °F 30.11 in West 6.0 mph 24.0 mph 53 % 0.00 in
09:08 11.7 °F -2.2 °F 30.11 in WSW 10.0 mph 24.0 mph 53 % 0.00 in
09:11 11.8 °F -2.1 °F 30.12 in WSW 6.0 mph 22.0 mph 53 % 0.00 in
09:16 11.9 °F -2.4 °F 30.11 in WSW 5.0 mph 20.0 mph 52 % 0.00 in
09:18 11.9 °F -2.0 °F 30.12 in WSW 9.0 mph 17.0 mph 53 % 0.00 in
09:23 12.1 °F -1.8 °F 30.12 in NW 7.0 mph 17.0 mph 53 % 0.00 in
09:28 12.3 °F -1.6 °F 30.12 in NW 3.0 mph 17.0 mph 53 % 0.00 in
09:30 12.4 °F -1.5 °F 30.12 in West 4.0 mph 21.0 mph 53 % 0.00 in
09:35 12.5 °F -1.4 °F 30.12 in WSW 16.0 mph 21.0 mph 53 % 0.00 in
09:40 12.5 °F -1.8 °F 30.12 in WSW 11.0 mph 21.0 mph 52 % 0.00 in
09:45 12.6 °F -1.3 °F 30.13 in WSW 6.0 mph 21.0 mph 53 % 0.00 in
09:46 12.6 °F -1.3 °F 30.13 in WSW 23.0 mph 23.0 mph 53 % 0.00 in
09:51 12.6 °F -1.7 °F 30.13 in SW 7.0 mph 23.0 mph 52 % 0.00 in
09:56 12.8 °F -2.0 °F 30.13 in WSW 15.0 mph 24.0 mph 51 % 0.00 in
10:01 13.0 °F -1.4 °F 30.13 in WSW 3.0 mph 24.0 mph 52 % 0.00 in
10:11 13.4 °F -1.4 °F 30.13 in WSW 9.0 mph 24.0 mph 51 % 0.00 in
10:16 13.6 °F -1.2 °F 30.13 in WNW 11.0 mph 19.0 mph 51 % 0.00 in
10:22 13.5 °F -1.8 °F 30.13 in SSW 7.0 mph 19.0 mph 50 % 0.00 in
10:27 13.5 °F -1.8 °F 30.14 in WSW 8.0 mph 20.0 mph 50 % 0.00 in
10:30 13.6 °F -1.2 °F 30.14 in WSW 8.0 mph 20.0 mph 51 % 0.00 in
10:35 13.7 °F -1.6 °F 30.14 in West 8.0 mph 20.0 mph 50 % 0.00 in
10:38 13.9 °F -1.0 °F 30.14 in WSW 11.0 mph 20.0 mph 51 % 0.00 in
10:43 14.0 °F -1.3 °F 30.15 in West 2.0 mph 20.0 mph 50 % 0.00 in
10:48 14.1 °F -0.7 °F 30.14 in Calm   19.0 mph 51 % 0.00 in
10:53 14.2 °F -1.1 °F 30.14 in WSW 7.0 mph 20.0 mph 50 % 0.00 in
10:58 14.4 °F -0.9 °F 30.14 in North 7.0 mph 20.0 mph 50 % 0.00 in
10:59 14.4 °F -0.9 °F 30.14 in West 10.0 mph 20.0 mph 50 % 0.00 in
11:04 14.4 °F -0.9 °F 30.14 in WSW 9.0 mph 20.0 mph 50 % 0.00 in
11:09 14.6 °F -0.3 °F 30.14 in WNW 2.0 mph 20.0 mph 51 % 0.00 in
11:10 14.7 °F -0.6 °F 30.14 in WSW 5.0 mph 20.0 mph 50 % 0.00 in
11:13 14.8 °F -0.5 °F 30.14 in SW 11.0 mph 19.0 mph 50 % 0.00 in
11:18 14.9 °F -0.8 °F 30.14 in WSW 12.0 mph 20.0 mph 49 % 0.00 in
11:21 14.8 °F -1.4 °F 30.14 in West 4.0 mph 20.0 mph 48 % 0.00 in
11:22 14.8 °F -1.4 °F 30.14 in WSW 9.0 mph 20.0 mph 48 % 0.00 in
11:27 14.9 °F -0.8 °F 30.13 in West 12.0 mph 20.0 mph 49 % 0.00 in
11:28 14.9 °F -0.8 °F 30.14 in West 9.0 mph 20.0 mph 49 % 0.00 in
11:33 14.9 °F -0.8 °F 30.13 in ENE 11.0 mph 20.0 mph 49 % 0.00 in
11:38 15.1 °F -0.7 °F 30.13 in West 10.0 mph 20.0 mph 49 % 0.00 in
11:43 15.3 °F -0.5 °F 30.13 in WSW 13.0 mph 20.0 mph 49 % 0.00 in
11:49 15.2 °F -1.0 °F 30.13 in WSW 7.0 mph 21.0 mph 48 % 0.00 in
11:54 15.4 °F -0.4 °F 30.13 in WSW 9.0 mph 22.0 mph 49 % 0.00 in
11:57 15.5 °F -0.8 °F 30.12 in WSW 4.0 mph 22.0 mph 48 % 0.00 in
12:02 15.6 °F -0.7 °F 30.12 in West 8.0 mph 22.0 mph 48 % 0.00 in
12:07 15.7 °F -0.6 °F 30.12 in WSW 9.0 mph 22.0 mph 48 % 0.00 in
12:12 15.8 °F -0.5 °F 30.12 in WSW 17.0 mph 22.0 mph 48 % 0.00 in
12:15 15.9 °F -0.9 °F 30.12 in WSW 12.0 mph 22.0 mph 47 % 0.00 in
12:18 16.0 °F -0.8 °F 30.12 in West 2.0 mph 22.0 mph 47 % 0.00 in
12:23 16.1 °F -0.2 °F 30.13 in West 6.0 mph 22.0 mph 48 % 0.00 in
12:28 16.2 °F -0.2 °F 30.12 in WSW 10.0 mph 22.0 mph 48 % 0.00 in
12:30 16.2 °F -0.2 °F 30.12 in NNE 8.0 mph 22.0 mph 48 % 0.00 in
12:33 16.3 °F 0.4 °F 30.12 in North 4.0 mph 22.0 mph 49 % 0.00 in
12:36 16.3 °F -0.1 °F 30.12 in WSW 7.0 mph 18.0 mph 48 % 0.00 in
12:38 16.3 °F -0.5 °F 30.12 in WSW 2.0 mph 18.0 mph 47 % 0.00 in
12:43 16.3 °F -0.1 °F 30.12 in SW 10.0 mph 17.0 mph 48 % 0.00 in
12:48 16.3 °F -0.5 °F 30.12 in WSW 5.0 mph 19.0 mph 47 % 0.00 in
12:50 16.4 °F -0.4 °F 30.12 in NW 1.0 mph 19.0 mph 47 % 0.00 in
12:55 16.6 °F 0.2 °F 30.12 in North 9.0 mph 19.0 mph 48 % 0.00 in
13:00 16.7 °F 0.3 °F 30.12 in WSW 7.0 mph 19.0 mph 48 % 0.00 in
13:04 16.8 °F -0.1 °F 30.12 in SSW 9.0 mph 19.0 mph 47 % 0.00 in
13:09 16.8 °F 0.0 °F 30.12 in WSW 6.0 mph 19.0 mph 47 % 0.00 in
13:13 16.8 °F -0.4 °F 30.13 in SW 13.0 mph 21.0 mph 46 % 0.00 in
13:18 16.9 °F 0.1 °F 30.13 in SW 8.0 mph 21.0 mph 47 % 0.00 in
13:23 17.1 °F -0.2 °F 30.13 in SW 6.0 mph 21.0 mph 46 % 0.00 in
13:28 17.2 °F 0.4 °F 30.13 in WSW 5.0 mph 21.0 mph 47 % 0.00 in
13:33 17.2 °F -0.1 °F 30.13 in WNW 3.0 mph 17.0 mph 46 % 0.00 in
13:34 17.2 °F -0.1 °F 30.13 in WNW 3.0 mph 17.0 mph 46 % 0.00 in
13:39 17.4 °F 0.6 °F 30.13 in WSW 7.0 mph 16.0 mph 47 % 0.00 in
13:42 17.4 °F 0.6 °F 30.13 in West 7.0 mph 16.0 mph 47 % 0.00 in
13:45 17.6 °F 0.8 °F 30.13 in WSW 6.0 mph 16.0 mph 47 % 0.00 in
13:50 17.8 °F 0.9 °F 30.14 in WSW 10.0 mph 16.0 mph 47 % 0.00 in
13:55 17.6 °F -0.2 °F 30.14 in WSW 8.0 mph 15.0 mph 45 % 0.00 in
14:00 17.8 °F 0.9 °F 30.14 in WSW 6.0 mph 15.0 mph 47 % 0.00 in
14:05 17.7 °F -0.2 °F 30.14 in West 8.0 mph 19.0 mph 45 % 0.00 in
14:10 17.6 °F -0.3 °F 30.14 in West 9.0 mph 19.0 mph 45 % 0.00 in
14:12 17.7 °F -0.2 °F 30.13 in SW 7.0 mph 20.0 mph 45 % 0.00 in
14:17 17.8 °F 0.4 °F 30.13 in WSW 13.0 mph 20.0 mph 46 % 0.00 in
14:20 17.8 °F 0.4 °F 30.14 in West 11.0 mph 20.0 mph 46 % 0.00 in
14:25 18.0 °F 0.6 °F 30.14 in SW 6.0 mph 20.0 mph 46 % 0.00 in
14:26 18.0 °F 0.1 °F 30.14 in NW 4.0 mph 20.0 mph 45 % 0.00 in
14:31 18.0 °F 0.6 °F 30.14 in WSW 6.0 mph 20.0 mph 46 % 0.00 in
14:32 18.1 °F 1.1 °F 30.14 in WSW 4.0 mph 20.0 mph 47 % 0.00 in
14:37 18.2 °F 0.9 °F 30.14 in WSW 10.0 mph 20.0 mph 46 % 0.00 in
14:38 18.2 °F 0.9 °F 30.14 in WSW 5.0 mph 20.0 mph 46 % 0.00 in
14:43 18.1 °F 0.3 °F 30.14 in West 4.0 mph 20.0 mph 45 % 0.00 in
14:44 18.1 °F 0.3 °F 30.14 in WSW 9.0 mph 19.0 mph 45 % 0.00 in
14:55 18.0 °F 2.0 °F 30.15 in West 5.0 mph 24.0 mph 49 % 0.00 in
14:59 18.0 °F 0.1 °F 30.14 in West 7.0 mph 24.0 mph 45 % 0.00 in
15:04 18.0 °F 0.1 °F 30.15 in West 9.0 mph 24.0 mph 45 % 0.00 in
15:08 17.9 °F 0.0 °F 30.15 in WSW 2.0 mph 20.0 mph 45 % 0.00 in
15:13 17.9 °F 0.1 °F 30.15 in SW 7.0 mph 20.0 mph 45 % 0.00 in
15:17 17.8 °F -0.6 °F 30.15 in WSW 11.0 mph 22.0 mph 44 % 0.00 in
15:21 17.7 °F -0.6 °F 30.16 in WSW 15.0 mph 31.0 mph 44 % 0.00 in
15:26 17.6 °F -1.1 °F 30.16 in WSW 10.0 mph 31.0 mph 43 % 0.00 in
15:27 17.6 °F -1.1 °F 30.16 in WSW 4.0 mph 31.0 mph 43 % 0.00 in
15:29 17.6 °F -0.6 °F 30.16 in SW 8.0 mph 31.0 mph 44 % 0.00 in
15:34 17.6 °F -0.6 °F 30.16 in West 1.0 mph 31.0 mph 44 % 0.00 in
15:35 17.5 °F -0.7 °F 30.17 in West 9.0 mph 31.0 mph 44 % 0.00 in
15:40 17.5 °F -0.7 °F 30.17 in WSW 10.0 mph 23.0 mph 44 % 0.00 in
15:44 17.5 °F -1.2 °F 30.17 in SW 9.0 mph 17.0 mph 43 % 0.00 in
15:49 17.4 °F -0.8 °F 30.17 in WSW 7.0 mph 17.0 mph 44 % 0.00 in
15:53 17.3 °F -1.0 °F 30.17 in NW 2.0 mph 17.0 mph 44 % 0.00 in
15:54 17.3 °F -1.0 °F 30.17 in West 3.0 mph 17.0 mph 44 % 0.00 in
15:58 17.3 °F -1.0 °F 30.17 in WNW 4.0 mph 16.0 mph 44 % 0.00 in
15:59 17.2 °F -1.1 °F 30.17 in NNE 5.0 mph 13.0 mph 44 % 0.00 in
16:03 17.2 °F -1.1 °F 30.17 in Calm   14.0 mph 44 % 0.00 in
16:08 17.1 °F -0.7 °F 30.18 in WSW 4.0 mph 14.0 mph 45 % 0.00 in
16:10 17.1 °F -0.7 °F 30.18 in SW 7.0 mph 14.0 mph 45 % 0.00 in
16:15 17.1 °F -1.2 °F 30.18 in WSW 10.0 mph 14.0 mph 44 % 0.00 in
16:20 17.0 °F -0.8 °F 30.18 in SW 4.0 mph 16.0 mph 45 % 0.00 in
16:25 17.0 °F -1.3 °F 30.19 in WSW 6.0 mph 18.0 mph 44 % 0.00 in
16:26 16.9 °F -1.4 °F 30.19 in West 2.0 mph 18.0 mph 44 % 0.00 in
16:31 16.9 °F -1.4 °F 30.19 in West 5.0 mph 17.0 mph 44 % 0.00 in
16:36 16.7 °F -1.6 °F 30.19 in WSW 6.0 mph 20.0 mph 44 % 0.00 in
16:38 16.7 °F -1.6 °F 30.19 in West 4.0 mph 20.0 mph 44 % 0.00 in
16:43 16.4 °F -1.4 °F 30.19 in SSW 4.0 mph 20.0 mph 45 % 0.00 in
16:48 16.3 °F -1.0 °F 30.20 in West 4.0 mph 20.0 mph 46 % 0.00 in
16:49 16.3 °F -1.0 °F 30.20 in WSW 6.0 mph 20.0 mph 46 % 0.00 in
16:54 16.2 °F -1.1 °F 30.20 in WSW 9.0 mph 18.0 mph 46 % 0.00 in
16:55 16.2 °F -1.1 °F 30.20 in WSW 1.0 mph 18.0 mph 46 % 0.00 in
16:59 16.1 °F -1.2 °F 30.20 in WNW 8.0 mph 18.0 mph 46 % 0.00 in
17:04 16.0 °F -1.7 °F 30.21 in WSW 5.0 mph 16.0 mph 45 % 0.00 in
17:06 15.9 °F -1.4 °F 30.21 in WSW 8.0 mph 16.0 mph 46 % 0.00 in
17:11 15.7 °F -2.0 °F 30.21 in WNW 2.0 mph 19.0 mph 45 % 0.00 in
17:18 15.6 °F -1.6 °F 30.22 in WSW 6.0 mph 19.0 mph 46 % 0.00 in
17:19 15.5 °F -1.7 °F 30.22 in WSW 6.0 mph 19.0 mph 46 % 0.00 in
17:24 15.5 °F -2.2 °F 30.22 in WSW 2.0 mph 19.0 mph 45 % 0.00 in
17:29 15.4 °F -2.3 °F 30.22 in WSW 12.0 mph 26.0 mph 45 % 0.00 in
17:30 15.3 °F -2.4 °F 30.22 in WNW 5.0 mph 26.0 mph 45 % 0.00 in
17:35 15.3 °F -2.4 °F 30.23 in WNW 7.0 mph 26.0 mph 45 % 0.00 in
17:37 15.3 °F -2.4 °F 30.23 in WSW 4.0 mph 26.0 mph 45 % 0.00 in
17:39 15.3 °F -2.4 °F 30.23 in WSW 5.0 mph 26.0 mph 45 % 0.00 in
17:44 15.2 °F -3.0 °F 30.23 in WSW 7.0 mph 26.0 mph 44 % 0.00 in
17:49 15.0 °F -3.1 °F 30.24 in SW 14.0 mph 23.0 mph 44 % 0.00 in
17:51 15.0 °F -3.1 °F 30.24 in WSW 8.0 mph 23.0 mph 44 % 0.00 in
17:56 14.9 °F -3.2 °F 30.24 in WSW 4.0 mph 23.0 mph 44 % 0.00 in
17:58 14.9 °F -2.8 °F 30.24 in WSW 5.0 mph 21.0 mph 45 % 0.00 in
18:03 14.7 °F -2.9 °F 30.24 in NNE 3.0 mph 22.0 mph 45 % 0.00 in
18:04 14.7 °F -2.9 °F 30.24 in West 3.0 mph 22.0 mph 45 % 0.00 in
18:09 14.6 °F -2.9 °F 30.24 in West 5.0 mph 22.0 mph 45 % 0.00 in
18:10 14.6 °F -2.9 °F 30.24 in WSW 11.0 mph 22.0 mph 45 % 0.00 in
18:11 14.6 °F -2.9 °F 30.24 in WNW 4.0 mph 22.0 mph 45 % 0.00 in
18:16 14.5 °F -2.6 °F 30.24 in Calm   22.0 mph 46 % 0.00 in
18:21 14.3 °F -2.7 °F 30.24 in WSW 5.0 mph 17.0 mph 46 % 0.00 in
18:26 14.3 °F -2.7 °F 30.24 in WSW 2.0 mph 17.0 mph 46 % 0.00 in
18:31 14.1 °F -2.9 °F 30.24 in North 6.0 mph 16.0 mph 46 % 0.00 in
18:32 14.1 °F -2.5 °F 30.24 in WSW 2.0 mph 16.0 mph 47 % 0.00 in
18:37 14.0 °F -2.6 °F 30.24 in WSW 4.0 mph 16.0 mph 47 % 0.00 in
18:42 13.9 °F -2.7 °F 30.24 in WSW 4.0 mph 16.0 mph 47 % 0.00 in
18:48 13.7 °F -2.4 °F 30.25 in WSW 2.0 mph 14.0 mph 48 % 0.00 in
18:52 13.6 °F -2.5 °F 30.25 in WSW 5.0 mph 14.0 mph 48 % 0.00 in
18:54 13.6 °F -2.5 °F 30.25 in WSW 3.0 mph 11.0 mph 48 % 0.00 in
18:59 13.5 °F -2.6 °F 30.25 in WSW 6.0 mph 11.0 mph 48 % 0.00 in
19:00 13.4 °F -2.7 °F 30.25 in WSW 5.0 mph 11.0 mph 48 % 0.00 in
19:05 13.4 °F -2.7 °F 30.25 in Calm   10.0 mph 48 % 0.00 in
19:10 13.4 °F -2.7 °F 30.25 in West 5.0 mph 14.0 mph 48 % 0.00 in
19:11 13.4 °F -2.7 °F 30.25 in WSW 4.0 mph 14.0 mph 48 % 0.00 in
19:14 13.4 °F -2.7 °F 30.26 in WSW 2.0 mph 14.0 mph 48 % 0.00 in
19:19 13.4 °F -2.7 °F 30.26 in West 3.0 mph 14.0 mph 48 % 0.00 in
19:24 13.3 °F -2.4 °F 30.26 in WSW 2.0 mph 14.0 mph 49 % 0.00 in
19:27 13.2 °F -2.5 °F 30.26 in Calm   14.0 mph 49 % 0.00 in
19:32 13.1 °F -2.6 °F 30.26 in WSW 2.0 mph 10.0 mph 49 % 0.00 in
19:37 13.0 °F -2.7 °F 30.26 in West 4.0 mph 10.0 mph 49 % 0.00 in
19:38 13.0 °F -2.7 °F 30.26 in SW 2.0 mph 10.0 mph 49 % 0.00 in
19:40 13.0 °F -2.7 °F 30.26 in WSW 4.0 mph 10.0 mph 49 % 0.00 in
19:45 12.9 °F -2.8 °F 30.26 in WSW 4.0 mph 10.0 mph 49 % 0.00 in
19:46 12.9 °F -2.8 °F 30.26 in WSW 4.0 mph 10.0 mph 49 % 0.00 in
19:52 12.9 °F -2.8 °F 30.27 in West 5.0 mph 10.0 mph 49 % 0.00 in
19:53 12.8 °F -2.4 °F 30.27 in West 4.0 mph 10.0 mph 50 % 0.00 in
19:58 12.7 °F -2.5 °F 30.27 in WSW 5.0 mph 8.0 mph 50 % 0.00 in
20:03 12.7 °F -2.5 °F 30.27 in WSW 4.0 mph 10.0 mph 50 % 0.00 in
20:07 12.8 °F -2.4 °F 30.27 in WSW 4.0 mph 11.0 mph 50 % 0.00 in
20:12 12.9 °F -2.8 °F 30.27 in SW 8.0 mph 12.0 mph 49 % 0.00 in
20:16 13.1 °F -2.5 °F 30.27 in West 7.0 mph 16.0 mph 49 % 0.00 in
20:17 13.1 °F -2.5 °F 30.27 in SW 8.0 mph 16.0 mph 49 % 0.00 in
20:22 13.3 °F -2.8 °F 30.27 in WSW 3.0 mph 16.0 mph 48 % 0.00 in
20:25 13.3 °F -2.8 °F 30.28 in WSW 6.0 mph 16.0 mph 48 % 0.00 in
20:30 13.4 °F -2.7 °F 30.28 in WSW 1.0 mph 16.0 mph 48 % 0.00 in
20:31 13.4 °F -2.7 °F 30.28 in SW 7.0 mph 16.0 mph 48 % 0.00 in
20:36 13.3 °F -2.8 °F 30.28 in West 4.0 mph 14.0 mph 48 % 0.00 in
20:37 13.4 °F -2.7 °F 30.28 in West 2.0 mph 14.0 mph 48 % 0.00 in
20:42 13.4 °F -2.7 °F 30.28 in WSW 6.0 mph 14.0 mph 48 % 0.00 in
20:47 13.3 °F -2.8 °F 30.28 in SW 13.0 mph 13.0 mph 48 % 0.00 in
20:49 13.4 °F -2.7 °F 30.28 in WSW 7.0 mph 13.0 mph 48 % 0.00 in
20:50 13.4 °F -2.7 °F 30.28 in WSW 9.0 mph 13.0 mph 48 % 0.00 in
20:55 13.5 °F -2.6 °F 30.28 in WSW 3.0 mph 14.0 mph 48 % 0.00 in
21:00 13.4 °F -2.7 °F 30.28 in WSW 4.0 mph 14.0 mph 48 % 0.00 in
21:05 13.4 °F -2.7 °F 30.28 in West 6.0 mph 14.0 mph 48 % 0.00 in
21:10 13.4 °F -2.7 °F 30.29 in West 4.0 mph 14.0 mph 48 % 0.00 in
21:14 13.4 °F -2.7 °F 30.29 in WSW 7.0 mph 14.0 mph 48 % 0.00 in
21:19 13.4 °F -2.3 °F 30.29 in West 3.0 mph 14.0 mph 49 % 0.00 in
21:24 13.4 °F -2.7 °F 30.29 in WSW 5.0 mph 17.0 mph 48 % 0.00 in
21:29 13.4 °F -2.2 °F 30.29 in WSW 2.0 mph 17.0 mph 49 % 0.00 in
21:30 13.4 °F -2.2 °F 30.29 in WSW 6.0 mph 17.0 mph 49 % 0.00 in
21:35 13.4 °F -2.2 °F 30.29 in West 4.0 mph 17.0 mph 49 % 0.00 in
21:40 13.3 °F -2.3 °F 30.29 in West 8.0 mph 17.0 mph 49 % 0.00 in
21:45 13.3 °F -2.3 °F 30.29 in WSW 9.0 mph 17.0 mph 49 % 0.00 in
21:47 13.4 °F -2.2 °F 30.29 in WSW 7.0 mph 17.0 mph 49 % 0.00 in
21:52 13.4 °F -2.2 °F 30.29 in West 2.0 mph 17.0 mph 49 % 0.00 in
21:56 13.3 °F -2.3 °F 30.29 in NNE 5.0 mph 17.0 mph 49 % 0.00 in
22:01 13.3 °F -2.4 °F 30.29 in West 3.0 mph 17.0 mph 49 % 0.00 in
22:06 13.2 °F -2.5 °F 30.29 in WNW 7.0 mph 15.0 mph 49 % 0.00 in
22:11 13.2 °F -2.5 °F 30.30 in West 3.0 mph 18.0 mph 49 % 0.00 in
22:16 13.2 °F -2.5 °F 30.30 in WNW 3.0 mph 18.0 mph 49 % 0.00 in
22:20 13.2 °F -2.5 °F 30.30 in West 7.0 mph 20.0 mph 49 % 0.00 in
22:25 13.2 °F -2.0 °F 30.31 in WSW 7.0 mph 20.0 mph 50 % 0.00 in
22:30 13.1 °F -2.1 °F 30.31 in WSW 6.0 mph 20.0 mph 50 % 0.00 in
22:35 13.0 °F -2.2 °F 30.31 in WSW 4.0 mph 20.0 mph 50 % 0.00 in
22:40 12.9 °F -2.3 °F 30.31 in WSW 6.0 mph 16.0 mph 50 % 0.00 in
22:42 12.9 °F -2.3 °F 30.31 in SW 13.0 mph 16.0 mph 50 % 0.00 in
22:43 12.9 °F -2.3 °F 30.31 in WNW 2.0 mph 16.0 mph 50 % 0.00 in
22:48 12.8 °F -2.4 °F 30.31 in SW 5.0 mph 15.0 mph 50 % 0.00 in
22:53 12.7 °F -2.5 °F 30.31 in WSW 6.0 mph 15.0 mph 50 % 0.00 in
22:55 12.8 °F -2.4 °F 30.31 in West 3.0 mph 15.0 mph 50 % 0.00 in
22:56 12.8 °F -2.4 °F 30.31 in West 12.0 mph 16.0 mph 50 % 0.00 in
23:01 12.8 °F -2.4 °F 30.31 in WSW 1.0 mph 16.0 mph 50 % 0.00 in
23:07 12.7 °F -2.5 °F 30.32 in West 4.0 mph 16.0 mph 50 % 0.00 in
23:12 12.7 °F -2.1 °F 30.32 in West 4.0 mph 16.0 mph 51 % 0.00 in
23:16 12.6 °F -2.2 °F 30.32 in WNW 2.0 mph 15.0 mph 51 % 0.00 in
23:21 12.5 °F -2.2 °F 30.31 in NW 2.0 mph 15.0 mph 51 % 0.00 in
23:23 12.5 °F -2.3 °F 30.31 in West 4.0 mph 11.0 mph 51 % 0.00 in
23:29 12.5 °F -2.3 °F 30.31 in SW 7.0 mph 11.0 mph 51 % 0.00 in
23:31 12.4 °F -2.4 °F 30.31 in West 1.0 mph 11.0 mph 51 % 0.00 in
23:37 12.4 °F -2.4 °F 30.31 in WSW 6.0 mph 11.0 mph 51 % 0.00 in
23:42 12.4 °F -1.9 °F 30.31 in WNW 6.0 mph 13.0 mph 52 % 0.00 in
23:43 12.4 °F -1.9 °F 30.31 in WNW 6.0 mph 13.0 mph 52 % 0.00 in
23:48 12.3 °F -2.0 °F 30.31 in WSW 5.0 mph 13.0 mph 52 % 0.00 in
23:53 12.2 °F -2.1 °F 30.31 in West 2.0 mph 13.0 mph 52 % 0.00 in
23:58 12.2 °F -2.1 °F 30.31 in West 2.0 mph 13.0 mph 52 % 0.00 in
MarylandWx.com
Compliments of Weather Underground - 7 mb